sensor_id;sensor_type;location;lat;lon;timestamp;P1;durP1;ratioP1;P2;durP2;ratioP2
48317;SDS011;34127;47.412;9.730;2022-08-24T00:00:58;7.07;;;4.03;;
48317;SDS011;34127;47.412;9.730;2022-08-24T00:03:24;10.07;;;4.68;;
48317;SDS011;34127;47.412;9.730;2022-08-24T00:05:51;6.95;;;4.35;;
48317;SDS011;34127;47.412;9.730;2022-08-24T00:08:17;8.88;;;4.45;;
48317;SDS011;34127;47.412;9.730;2022-08-24T00:10:44;4.97;;;3.30;;
48317;SDS011;34127;47.412;9.730;2022-08-24T00:13:11;7.30;;;3.88;;
48317;SDS011;34127;47.412;9.730;2022-08-24T00:15:37;7.32;;;3.40;;
48317;SDS011;34127;47.412;9.730;2022-08-24T00:18:03;5.88;;;2.97;;
48317;SDS011;34127;47.412;9.730;2022-08-24T00:20:30;4.97;;;3.38;;
48317;SDS011;34127;47.412;9.730;2022-08-24T00:22:56;6.78;;;3.22;;
48317;SDS011;34127;47.412;9.730;2022-08-24T00:25:22;6.20;;;3.35;;
48317;SDS011;34127;47.412;9.730;2022-08-24T00:27:49;4.32;;;3.20;;
48317;SDS011;34127;47.412;9.730;2022-08-24T00:30:16;5.22;;;3.22;;
48317;SDS011;34127;47.412;9.730;2022-08-24T00:32:43;4.75;;;3.40;;
48317;SDS011;34127;47.412;9.730;2022-08-24T00:35:10;5.85;;;3.00;;
48317;SDS011;34127;47.412;9.730;2022-08-24T00:37:38;5.20;;;3.47;;
48317;SDS011;34127;47.412;9.730;2022-08-24T00:40:05;4.43;;;3.00;;
48317;SDS011;34127;47.412;9.730;2022-08-24T00:42:32;4.53;;;3.08;;
48317;SDS011;34127;47.412;9.730;2022-08-24T00:44:59;7.07;;;3.00;;
48317;SDS011;34127;47.412;9.730;2022-08-24T00:47:26;4.63;;;2.88;;
48317;SDS011;34127;47.412;9.730;2022-08-24T00:49:58;5.07;;;2.90;;
48317;SDS011;34127;47.412;9.730;2022-08-24T00:52:26;4.05;;;2.70;;
48317;SDS011;34127;47.412;9.730;2022-08-24T00:54:54;5.55;;;2.97;;
48317;SDS011;34127;47.412;9.730;2022-08-24T00:57:24;4.07;;;3.00;;
48317;SDS011;34127;47.412;9.730;2022-08-24T00:59:58;4.60;;;3.10;;
48317;SDS011;34127;47.412;9.730;2022-08-24T01:02:26;6.35;;;3.75;;
48317;SDS011;34127;47.412;9.730;2022-08-24T01:04:55;6.05;;;3.10;;
48317;SDS011;34127;47.412;9.730;2022-08-24T01:07:22;4.47;;;3.00;;
48317;SDS011;34127;47.412;9.730;2022-08-24T01:09:49;6.68;;;3.30;;
48317;SDS011;34127;47.412;9.730;2022-08-24T01:12:16;4.38;;;3.40;;
48317;SDS011;34127;47.412;9.730;2022-08-24T01:14:42;5.15;;;3.25;;
48317;SDS011;34127;47.412;9.730;2022-08-24T01:17:08;4.22;;;2.72;;
48317;SDS011;34127;47.412;9.730;2022-08-24T01:19:54;5.55;;;3.17;;
48317;SDS011;34127;47.412;9.730;2022-08-24T01:22:32;4.25;;;3.10;;
48317;SDS011;34127;47.412;9.730;2022-08-24T01:25:01;7.07;;;3.20;;
48317;SDS011;34127;47.412;9.730;2022-08-24T01:27:27;4.68;;;2.95;;
48317;SDS011;34127;47.412;9.730;2022-08-24T01:29:54;5.13;;;3.30;;
48317;SDS011;34127;47.412;9.730;2022-08-24T01:32:23;6.35;;;2.90;;
48317;SDS011;34127;47.412;9.730;2022-08-24T01:34:52;6.35;;;3.15;;
48317;SDS011;34127;47.412;9.730;2022-08-24T01:37:18;4.80;;;3.15;;
48317;SDS011;34127;47.412;9.730;2022-08-24T01:39:45;4.55;;;3.42;;
48317;SDS011;34127;47.412;9.730;2022-08-24T01:42:12;5.47;;;3.03;;
48317;SDS011;34127;47.412;9.730;2022-08-24T01:44:39;5.53;;;3.58;;
48317;SDS011;34127;47.412;9.730;2022-08-24T01:47:06;4.82;;;3.17;;
48317;SDS011;34127;47.412;9.730;2022-08-24T01:49:34;3.92;;;2.92;;
48317;SDS011;34127;47.412;9.730;2022-08-24T01:52:00;5.63;;;3.78;;
48317;SDS011;34127;47.412;9.730;2022-08-24T01:54:27;4.97;;;3.22;;
48317;SDS011;34127;47.412;9.730;2022-08-24T01:56:53;5.32;;;3.55;;
48317;SDS011;34127;47.412;9.730;2022-08-24T01:59:19;4.85;;;3.33;;
48317;SDS011;34127;47.412;9.730;2022-08-24T02:01:47;5.13;;;3.03;;
48317;SDS011;34127;47.412;9.730;2022-08-24T02:04:15;4.97;;;3.20;;
48317;SDS011;34127;47.412;9.730;2022-08-24T02:06:41;5.10;;;3.28;;
48317;SDS011;34127;47.412;9.730;2022-08-24T02:09:09;4.65;;;3.10;;
48317;SDS011;34127;47.412;9.730;2022-08-24T02:11:36;5.00;;;2.65;;
48317;SDS011;34127;47.412;9.730;2022-08-24T02:14:03;4.75;;;3.15;;
48317;SDS011;34127;47.412;9.730;2022-08-24T02:16:29;5.15;;;2.90;;
48317;SDS011;34127;47.412;9.730;2022-08-24T02:18:55;8.80;;;3.97;;
48317;SDS011;34127;47.412;9.730;2022-08-24T02:21:22;4.22;;;3.00;;
48317;SDS011;34127;47.412;9.730;2022-08-24T02:23:49;5.88;;;3.03;;
48317;SDS011;34127;47.412;9.730;2022-08-24T02:26:15;6.22;;;3.80;;
48317;SDS011;34127;47.412;9.730;2022-08-24T02:28:42;8.40;;;4.05;;
48317;SDS011;34127;47.412;9.730;2022-08-24T02:31:08;6.65;;;3.60;;
48317;SDS011;34127;47.412;9.730;2022-08-24T02:33:35;4.28;;;3.30;;
48317;SDS011;34127;47.412;9.730;2022-08-24T02:36:03;5.15;;;3.13;;
48317;SDS011;34127;47.412;9.730;2022-08-24T02:38:29;5.28;;;3.25;;
48317;SDS011;34127;47.412;9.730;2022-08-24T02:40:55;5.18;;;3.13;;
48317;SDS011;34127;47.412;9.730;2022-08-24T02:43:22;5.03;;;3.28;;
48317;SDS011;34127;47.412;9.730;2022-08-24T02:45:48;6.43;;;3.22;;
48317;SDS011;34127;47.412;9.730;2022-08-24T02:48:15;5.38;;;3.10;;
48317;SDS011;34127;47.412;9.730;2022-08-24T02:50:43;4.30;;;3.15;;
48317;SDS011;34127;47.412;9.730;2022-08-24T02:53:10;5.35;;;3.28;;
48317;SDS011;34127;47.412;9.730;2022-08-24T02:55:38;7.35;;;3.47;;
48317;SDS011;34127;47.412;9.730;2022-08-24T02:58:05;5.10;;;3.30;;
48317;SDS011;34127;47.412;9.730;2022-08-24T03:00:31;9.60;;;4.10;;
48317;SDS011;34127;47.412;9.730;2022-08-24T03:02:57;7.32;;;3.53;;
48317;SDS011;34127;47.412;9.730;2022-08-24T03:05:23;5.72;;;3.90;;
48317;SDS011;34127;47.412;9.730;2022-08-24T03:07:50;5.78;;;3.70;;
48317;SDS011;34127;47.412;9.730;2022-08-24T03:10:17;5.18;;;3.95;;
48317;SDS011;34127;47.412;9.730;2022-08-24T03:12:43;7.47;;;4.20;;
48317;SDS011;34127;47.412;9.730;2022-08-24T03:15:10;6.15;;;4.00;;
48317;SDS011;34127;47.412;9.730;2022-08-24T03:17:36;8.50;;;3.90;;
48317;SDS011;34127;47.412;9.730;2022-08-24T03:20:03;6.60;;;3.92;;
48317;SDS011;34127;47.412;9.730;2022-08-24T03:22:30;5.35;;;4.00;;
48317;SDS011;34127;47.412;9.730;2022-08-24T03:24:56;7.38;;;4.20;;
48317;SDS011;34127;47.412;9.730;2022-08-24T03:27:22;6.38;;;3.90;;
48317;SDS011;34127;47.412;9.730;2022-08-24T03:29:48;5.88;;;3.97;;
48317;SDS011;34127;47.412;9.730;2022-08-24T03:32:14;7.70;;;4.30;;
48317;SDS011;34127;47.412;9.730;2022-08-24T03:34:40;11.85;;;5.25;;
48317;SDS011;34127;47.412;9.730;2022-08-24T03:37:07;6.80;;;4.35;;
48317;SDS011;34127;47.412;9.730;2022-08-24T03:39:33;5.57;;;4.22;;
48317;SDS011;34127;47.412;9.730;2022-08-24T03:41:59;5.85;;;4.15;;
48317;SDS011;34127;47.412;9.730;2022-08-24T03:44:26;5.85;;;4.18;;
48317;SDS011;34127;47.412;9.730;2022-08-24T03:46:52;5.10;;;4.00;;
48317;SDS011;34127;47.412;9.730;2022-08-24T03:49:18;5.68;;;4.18;;
48317;SDS011;34127;47.412;9.730;2022-08-24T03:51:45;6.60;;;4.10;;
48317;SDS011;34127;47.412;9.730;2022-08-24T03:54:12;5.38;;;3.63;;
48317;SDS011;34127;47.412;9.730;2022-08-24T03:56:38;7.07;;;3.60;;
48317;SDS011;34127;47.412;9.730;2022-08-24T03:59:05;6.28;;;3.55;;
48317;SDS011;34127;47.412;9.730;2022-08-24T04:01:32;6.20;;;3.53;;
48317;SDS011;34127;47.412;9.730;2022-08-24T04:03:58;6.28;;;3.72;;
48317;SDS011;34127;47.412;9.730;2022-08-24T04:06:25;5.15;;;3.28;;
48317;SDS011;34127;47.412;9.730;2022-08-24T04:08:51;7.22;;;3.58;;
48317;SDS011;34127;47.412;9.730;2022-08-24T04:11:18;7.55;;;3.63;;
48317;SDS011;34127;47.412;9.730;2022-08-24T04:13:45;7.18;;;3.78;;
48317;SDS011;34127;47.412;9.730;2022-08-24T04:16:13;5.82;;;3.75;;
48317;SDS011;34127;47.412;9.730;2022-08-24T04:18:39;6.00;;;3.88;;
48317;SDS011;34127;47.412;9.730;2022-08-24T04:21:05;5.60;;;3.90;;
48317;SDS011;34127;47.412;9.730;2022-08-24T04:23:32;5.50;;;3.83;;
48317;SDS011;34127;47.412;9.730;2022-08-24T04:26:02;4.30;;;3.15;;
48317;SDS011;34127;47.412;9.730;2022-08-24T04:28:29;5.28;;;3.35;;
48317;SDS011;34127;47.412;9.730;2022-08-24T04:30:56;9.55;;;3.78;;
48317;SDS011;34127;47.412;9.730;2022-08-24T04:33:22;9.80;;;3.83;;
48317;SDS011;34127;47.412;9.730;2022-08-24T04:35:48;6.30;;;3.80;;
48317;SDS011;34127;47.412;9.730;2022-08-24T04:38:15;4.95;;;3.55;;
48317;SDS011;34127;47.412;9.730;2022-08-24T04:40:42;5.68;;;3.25;;
48317;SDS011;34127;47.412;9.730;2022-08-24T04:43:09;4.95;;;4.00;;
48317;SDS011;34127;47.412;9.730;2022-08-24T04:45:43;8.70;;;3.63;;
48317;SDS011;34127;47.412;9.730;2022-08-24T04:48:10;7.93;;;3.75;;
48317;SDS011;34127;47.412;9.730;2022-08-24T04:50:37;5.30;;;3.53;;
48317;SDS011;34127;47.412;9.730;2022-08-24T04:53:04;9.95;;;3.75;;
48317;SDS011;34127;47.412;9.730;2022-08-24T04:55:31;5.47;;;3.45;;
48317;SDS011;34127;47.412;9.730;2022-08-24T04:57:57;4.63;;;3.40;;
48317;SDS011;34127;47.412;9.730;2022-08-24T05:00:23;5.68;;;3.42;;
48317;SDS011;34127;47.412;9.730;2022-08-24T05:02:50;5.97;;;3.60;;
48317;SDS011;34127;47.412;9.730;2022-08-24T05:05:16;7.10;;;3.53;;
48317;SDS011;34127;47.412;9.730;2022-08-24T05:07:42;5.60;;;3.60;;
48317;SDS011;34127;47.412;9.730;2022-08-24T05:10:09;6.70;;;3.60;;
48317;SDS011;34127;47.412;9.730;2022-08-24T05:12:35;6.35;;;3.28;;
48317;SDS011;34127;47.412;9.730;2022-08-24T05:15:03;4.70;;;2.97;;
48317;SDS011;34127;47.412;9.730;2022-08-24T05:17:29;5.70;;;3.30;;
48317;SDS011;34127;47.412;9.730;2022-08-24T05:19:55;7.57;;;3.55;;
48317;SDS011;34127;47.412;9.730;2022-08-24T05:22:22;5.72;;;3.50;;
48317;SDS011;34127;47.412;9.730;2022-08-24T05:24:48;6.35;;;3.58;;
48317;SDS011;34127;47.412;9.730;2022-08-24T05:27:15;6.43;;;3.78;;
48317;SDS011;34127;47.412;9.730;2022-08-24T05:29:41;8.70;;;3.85;;
48317;SDS011;34127;47.412;9.730;2022-08-24T05:32:08;7.75;;;3.83;;
48317;SDS011;34127;47.412;9.730;2022-08-24T05:34:34;6.93;;;4.00;;
48317;SDS011;34127;47.412;9.730;2022-08-24T05:37:00;7.15;;;4.50;;
48317;SDS011;34127;47.412;9.730;2022-08-24T05:39:26;11.23;;;3.90;;
48317;SDS011;34127;47.412;9.730;2022-08-24T05:41:55;6.82;;;3.47;;
48317;SDS011;34127;47.412;9.730;2022-08-24T05:44:21;6.18;;;3.38;;
48317;SDS011;34127;47.412;9.730;2022-08-24T05:46:48;5.85;;;3.45;;
48317;SDS011;34127;47.412;9.730;2022-08-24T05:49:14;8.38;;;3.92;;
48317;SDS011;34127;47.412;9.730;2022-08-24T05:51:40;7.40;;;3.95;;
48317;SDS011;34127;47.412;9.730;2022-08-24T05:54:07;7.55;;;3.42;;
48317;SDS011;34127;47.412;9.730;2022-08-24T05:56:33;7.88;;;3.92;;
48317;SDS011;34127;47.412;9.730;2022-08-24T05:58:59;8.35;;;3.42;;
48317;SDS011;34127;47.412;9.730;2022-08-24T06:01:26;5.22;;;3.60;;
48317;SDS011;34127;47.412;9.730;2022-08-24T06:03:53;5.75;;;3.10;;
48317;SDS011;34127;47.412;9.730;2022-08-24T06:06:20;4.38;;;3.03;;
48317;SDS011;34127;47.412;9.730;2022-08-24T06:08:48;4.57;;;3.28;;
48317;SDS011;34127;47.412;9.730;2022-08-24T06:11:19;6.53;;;3.20;;
48317;SDS011;34127;47.412;9.730;2022-08-24T06:13:47;10.68;;;3.25;;
48317;SDS011;34127;47.412;9.730;2022-08-24T06:16:13;9.30;;;4.00;;
48317;SDS011;34127;47.412;9.730;2022-08-24T06:18:39;8.02;;;4.20;;
48317;SDS011;34127;47.412;9.730;2022-08-24T06:21:09;9.20;;;4.28;;
48317;SDS011;34127;47.412;9.730;2022-08-24T06:23:36;16.98;;;5.30;;
48317;SDS011;34127;47.412;9.730;2022-08-24T06:26:03;13.48;;;5.50;;
48317;SDS011;34127;47.412;9.730;2022-08-24T06:28:48;14.70;;;5.47;;
48317;SDS011;34127;47.412;9.730;2022-08-24T06:31:14;15.23;;;5.63;;
48317;SDS011;34127;47.412;9.730;2022-08-24T06:33:40;12.68;;;5.18;;
48317;SDS011;34127;47.412;9.730;2022-08-24T06:36:07;10.80;;;5.00;;
48317;SDS011;34127;47.412;9.730;2022-08-24T06:38:33;8.32;;;4.45;;
48317;SDS011;34127;47.412;9.730;2022-08-24T06:40:59;14.10;;;4.95;;
48317;SDS011;34127;47.412;9.730;2022-08-24T06:43:25;14.73;;;4.85;;
48317;SDS011;34127;47.412;9.730;2022-08-24T06:45:52;11.60;;;4.90;;
48317;SDS011;34127;47.412;9.730;2022-08-24T06:48:19;15.93;;;5.72;;
48317;SDS011;34127;47.412;9.730;2022-08-24T06:50:46;9.00;;;4.53;;
48317;SDS011;34127;47.412;9.730;2022-08-24T06:53:12;10.13;;;4.93;;
48317;SDS011;34127;47.412;9.730;2022-08-24T06:55:52;8.48;;;5.00;;
48317;SDS011;34127;47.412;9.730;2022-08-24T06:58:19;13.93;;;5.10;;
48317;SDS011;34127;47.412;9.730;2022-08-24T07:00:46;12.13;;;5.00;;
48317;SDS011;34127;47.412;9.730;2022-08-24T07:03:12;7.85;;;3.78;;
48317;SDS011;34127;47.412;9.730;2022-08-24T07:05:39;8.57;;;3.72;;
48317;SDS011;34127;47.412;9.730;2022-08-24T07:08:06;8.63;;;3.53;;
48317;SDS011;34127;47.412;9.730;2022-08-24T07:10:32;11.07;;;3.33;;
48317;SDS011;34127;47.412;9.730;2022-08-24T07:12:59;6.32;;;3.30;;
48317;SDS011;34127;47.412;9.730;2022-08-24T07:15:25;11.05;;;3.67;;
48317;SDS011;34127;47.412;9.730;2022-08-24T07:17:51;6.35;;;3.33;;
48317;SDS011;34127;47.412;9.730;2022-08-24T07:20:18;9.40;;;3.38;;
48317;SDS011;34127;47.412;9.730;2022-08-24T07:22:44;7.28;;;3.22;;
48317;SDS011;34127;47.412;9.730;2022-08-24T07:25:11;7.07;;;3.75;;
48317;SDS011;34127;47.412;9.730;2022-08-24T07:27:37;6.80;;;3.50;;
48317;SDS011;34127;47.412;9.730;2022-08-24T07:30:04;5.53;;;3.30;;
48317;SDS011;34127;47.412;9.730;2022-08-24T07:32:31;7.97;;;3.28;;
48317;SDS011;34127;47.412;9.730;2022-08-24T07:34:57;5.43;;;2.92;;
48317;SDS011;34127;47.412;9.730;2022-08-24T07:37:24;6.13;;;3.17;;
48317;SDS011;34127;47.412;9.730;2022-08-24T07:39:50;4.93;;;3.05;;
48317;SDS011;34127;47.412;9.730;2022-08-24T07:42:16;4.35;;;2.72;;
48317;SDS011;34127;47.412;9.730;2022-08-24T07:44:42;6.22;;;2.85;;
48317;SDS011;34127;47.412;9.730;2022-08-24T07:47:08;5.50;;;2.60;;
48317;SDS011;34127;47.412;9.730;2022-08-24T07:49:35;5.78;;;2.67;;
48317;SDS011;34127;47.412;9.730;2022-08-24T07:52:01;5.78;;;2.78;;
48317;SDS011;34127;47.412;9.730;2022-08-24T07:54:27;5.90;;;2.80;;
48317;SDS011;34127;47.412;9.730;2022-08-24T07:56:53;4.38;;;2.83;;
48317;SDS011;34127;47.412;9.730;2022-08-24T07:59:20;5.85;;;2.80;;
48317;SDS011;34127;47.412;9.730;2022-08-24T08:01:46;6.15;;;2.92;;
48317;SDS011;34127;47.412;9.730;2022-08-24T08:04:14;6.10;;;2.90;;
48317;SDS011;34127;47.412;9.730;2022-08-24T08:06:42;6.30;;;2.95;;
48317;SDS011;34127;47.412;9.730;2022-08-24T08:09:08;5.43;;;2.70;;
48317;SDS011;34127;47.412;9.730;2022-08-24T08:11:34;6.50;;;3.38;;
48317;SDS011;34127;47.412;9.730;2022-08-24T08:14:00;5.20;;;2.90;;
48317;SDS011;34127;47.412;9.730;2022-08-24T08:16:26;6.63;;;2.70;;
48317;SDS011;34127;47.412;9.730;2022-08-24T08:18:53;7.25;;;3.10;;
48317;SDS011;34127;47.412;9.730;2022-08-24T08:21:19;6.10;;;2.85;;
48317;SDS011;34127;47.412;9.730;2022-08-24T08:24:04;5.88;;;2.63;;
48317;SDS011;34127;47.412;9.730;2022-08-24T08:26:40;6.00;;;2.42;;
48317;SDS011;34127;47.412;9.730;2022-08-24T08:29:07;5.95;;;2.85;;
48317;SDS011;34127;47.412;9.730;2022-08-24T08:31:34;7.05;;;3.20;;
48317;SDS011;34127;47.412;9.730;2022-08-24T08:34:01;3.65;;;2.30;;
48317;SDS011;34127;47.412;9.730;2022-08-24T08:36:28;5.13;;;2.70;;
48317;SDS011;34127;47.412;9.730;2022-08-24T08:38:54;4.43;;;2.60;;
48317;SDS011;34127;47.412;9.730;2022-08-24T08:44:15;4.45;;;2.72;;
48317;SDS011;34127;47.412;9.730;2022-08-24T08:46:49;5.53;;;2.70;;
48317;SDS011;34127;47.412;9.730;2022-08-24T08:49:38;3.95;;;2.53;;
48317;SDS011;34127;47.412;9.730;2022-08-24T09:00:00;7.95;;;2.78;;
48317;SDS011;34127;47.412;9.730;2022-08-24T09:02:51;3.85;;;2.55;;
48317;SDS011;34127;47.412;9.730;2022-08-24T09:12:55;4.15;;;2.40;;
48317;SDS011;34127;47.412;9.730;2022-08-24T09:15:38;7.22;;;2.78;;
48317;SDS011;34127;47.412;9.730;2022-08-24T09:18:16;3.95;;;2.60;;
48317;SDS011;34127;47.412;9.730;2022-08-24T09:36:52;4.50;;;2.60;;
48317;SDS011;34127;47.412;9.730;2022-08-24T09:39:35;5.07;;;2.88;;
48317;SDS011;34127;47.412;9.730;2022-08-24T09:55:34;7.10;;;4.68;;
48317;SDS011;34127;47.412;9.730;2022-08-24T10:12:02;6.45;;;4.30;;
48317;SDS011;34127;47.412;9.730;2022-08-24T10:22:01;6.22;;;3.72;;
48317;SDS011;34127;47.412;9.730;2022-08-24T10:27:07;7.05;;;4.50;;
48317;SDS011;34127;47.412;9.730;2022-08-24T10:35:04;8.63;;;3.63;;
48317;SDS011;34127;47.412;9.730;2022-08-24T10:40:43;6.57;;;4.20;;
48317;SDS011;34127;47.412;9.730;2022-08-24T10:51:28;7.05;;;3.40;;
48317;SDS011;34127;47.412;9.730;2022-08-24T10:54:01;6.00;;;3.80;;
48317;SDS011;34127;47.412;9.730;2022-08-24T10:56:38;6.75;;;3.20;;
48317;SDS011;34127;47.412;9.730;2022-08-24T10:59:21;8.18;;;3.30;;
48317;SDS011;34127;47.412;9.730;2022-08-24T11:01:58;6.40;;;3.45;;
48317;SDS011;34127;47.412;9.730;2022-08-24T11:04:25;5.03;;;3.28;;
48317;SDS011;34127;47.412;9.730;2022-08-24T11:07:07;5.78;;;3.45;;
48317;SDS011;34127;47.412;9.730;2022-08-24T11:12:16;6.18;;;3.72;;
48317;SDS011;34127;47.412;9.730;2022-08-24T11:14:45;5.43;;;3.38;;
48317;SDS011;34127;47.412;9.730;2022-08-24T11:17:16;6.72;;;3.28;;
48317;SDS011;34127;47.412;9.730;2022-08-24T11:19:44;6.72;;;3.30;;
48317;SDS011;34127;47.412;9.730;2022-08-24T11:25:03;5.97;;;3.30;;
48317;SDS011;34127;47.412;9.730;2022-08-24T11:27:40;4.63;;;3.00;;
48317;SDS011;34127;47.412;9.730;2022-08-24T11:30:08;5.85;;;3.03;;
48317;SDS011;34127;47.412;9.730;2022-08-24T11:40:32;10.18;;;3.30;;
48317;SDS011;34127;47.412;9.730;2022-08-24T11:43:22;5.50;;;3.03;;
48317;SDS011;34127;47.412;9.730;2022-08-24T11:48:32;6.05;;;3.20;;
48317;SDS011;34127;47.412;9.730;2022-08-24T11:51:09;5.55;;;2.97;;
48317;SDS011;34127;47.412;9.730;2022-08-24T12:06:12;5.50;;;3.38;;
48317;SDS011;34127;47.412;9.730;2022-08-24T12:14:27;5.03;;;3.00;;
48317;SDS011;34127;47.412;9.730;2022-08-24T12:19:35;4.82;;;2.95;;
48317;SDS011;34127;47.412;9.730;2022-08-24T12:22:03;5.13;;;3.17;;
48317;SDS011;34127;47.412;9.730;2022-08-24T12:24:31;4.53;;;2.70;;
48317;SDS011;34127;47.412;9.730;2022-08-24T12:27:05;6.78;;;3.15;;
48317;SDS011;34127;47.412;9.730;2022-08-24T12:29:34;3.97;;;2.83;;
48317;SDS011;34127;47.412;9.730;2022-08-24T12:35:17;7.03;;;2.90;;
48317;SDS011;34127;47.412;9.730;2022-08-24T12:39:55;8.63;;;2.40;;
48317;SDS011;34127;47.412;9.730;2022-08-24T12:42:33;5.93;;;2.90;;
48317;SDS011;34127;47.412;9.730;2022-08-24T12:45:03;3.80;;;2.40;;
48317;SDS011;34127;47.412;9.730;2022-08-24T12:47:33;3.65;;;2.50;;
48317;SDS011;34127;47.412;9.730;2022-08-24T12:50:03;5.38;;;2.50;;
48317;SDS011;34127;47.412;9.730;2022-08-24T12:52:38;5.65;;;2.63;;
48317;SDS011;34127;47.412;9.730;2022-08-24T13:00:33;6.90;;;2.40;;
48317;SDS011;34127;47.412;9.730;2022-08-24T13:03:02;6.25;;;2.35;;
48317;SDS011;34127;47.412;9.730;2022-08-24T13:10:38;4.45;;;2.30;;
48317;SDS011;34127;47.412;9.730;2022-08-24T13:13:09;3.63;;;2.25;;
48317;SDS011;34127;47.412;9.730;2022-08-24T13:33:41;3.55;;;2.20;;
48317;SDS011;34127;47.412;9.730;2022-08-24T13:40:57;6.82;;;2.42;;
48317;SDS011;34127;47.412;9.730;2022-08-24T13:44:00;3.47;;;2.35;;
48317;SDS011;34127;47.412;9.730;2022-08-24T13:48:56;6.32;;;2.22;;
48317;SDS011;34127;47.412;9.730;2022-08-24T13:58:55;3.80;;;2.10;;
48317;SDS011;34127;47.412;9.730;2022-08-24T14:07:07;6.40;;;2.20;;
48317;SDS011;34127;47.412;9.730;2022-08-24T14:14:50;5.53;;;2.20;;
48317;SDS011;34127;47.412;9.730;2022-08-24T14:25:39;4.78;;;2.22;;
48317;SDS011;34127;47.412;9.730;2022-08-24T14:28:21;4.20;;;2.10;;
48317;SDS011;34127;47.412;9.730;2022-08-24T14:30:52;5.63;;;2.05;;
48317;SDS011;34127;47.412;9.730;2022-08-24T14:33:34;11.38;;;2.20;;
48317;SDS011;34127;47.412;9.730;2022-08-24T14:36:14;5.38;;;2.20;;
48317;SDS011;34127;47.412;9.730;2022-08-24T14:46:42;5.05;;;1.90;;
48317;SDS011;34127;47.412;9.730;2022-08-24T14:54:16;4.57;;;2.20;;
48317;SDS011;34127;47.412;9.730;2022-08-24T14:57:08;4.88;;;2.13;;
48317;SDS011;34127;47.412;9.730;2022-08-24T15:02:39;3.42;;;2.13;;
48317;SDS011;34127;47.412;9.730;2022-08-24T15:10:53;3.22;;;2.00;;
48317;SDS011;34127;47.412;9.730;2022-08-24T15:18:39;4.90;;;2.00;;
48317;SDS011;34127;47.412;9.730;2022-08-24T15:21:12;5.10;;;2.10;;
48317;SDS011;34127;47.412;9.730;2022-08-24T15:29:25;3.15;;;2.00;;
48317;SDS011;34127;47.412;9.730;2022-08-24T15:34:31;4.85;;;2.13;;
48317;SDS011;34127;47.412;9.730;2022-08-24T15:37:00;3.67;;;2.35;;
48317;SDS011;34127;47.412;9.730;2022-08-24T15:39:26;4.57;;;2.78;;
48317;SDS011;34127;47.412;9.730;2022-08-24T15:41:53;6.22;;;2.20;;
48317;SDS011;34127;47.412;9.730;2022-08-24T15:44:25;6.13;;;2.85;;
48317;SDS011;34127;47.412;9.730;2022-08-24T15:46:55;3.72;;;2.00;;
48317;SDS011;34127;47.412;9.730;2022-08-24T15:49:56;3.60;;;2.40;;
48317;SDS011;34127;47.412;9.730;2022-08-24T15:55:00;5.05;;;2.00;;
48317;SDS011;34127;47.412;9.730;2022-08-24T15:57:28;4.45;;;2.10;;
48317;SDS011;34127;47.412;9.730;2022-08-24T16:05:45;2.72;;;1.90;;
48317;SDS011;34127;47.412;9.730;2022-08-24T16:08:12;4.32;;;1.90;;
48317;SDS011;34127;47.412;9.730;2022-08-24T16:15:47;3.72;;;1.88;;
48317;SDS011;34127;47.412;9.730;2022-08-24T16:18:15;3.72;;;2.00;;
48317;SDS011;34127;47.412;9.730;2022-08-24T16:20:42;5.78;;;2.00;;
48317;SDS011;34127;47.412;9.730;2022-08-24T16:23:12;4.28;;;2.03;;
48317;SDS011;34127;47.412;9.730;2022-08-24T16:25:41;3.80;;;1.83;;
48317;SDS011;34127;47.412;9.730;2022-08-24T16:30:55;6.70;;;2.33;;
48317;SDS011;34127;47.412;9.730;2022-08-24T16:33:39;4.07;;;1.80;;
48317;SDS011;34127;47.412;9.730;2022-08-24T16:36:06;3.80;;;2.13;;
48317;SDS011;34127;47.412;9.730;2022-08-24T16:38:33;3.17;;;1.98;;
48317;SDS011;34127;47.412;9.730;2022-08-24T16:41:04;3.28;;;2.00;;
48317;SDS011;34127;47.412;9.730;2022-08-24T16:43:32;3.30;;;2.00;;
48317;SDS011;34127;47.412;9.730;2022-08-24T16:45:58;4.45;;;2.47;;
48317;SDS011;34127;47.412;9.730;2022-08-24T16:48:25;6.47;;;2.75;;
48317;SDS011;34127;47.412;9.730;2022-08-24T16:50:52;4.78;;;1.90;;
48317;SDS011;34127;47.412;9.730;2022-08-24T16:53:20;10.18;;;2.45;;
48317;SDS011;34127;47.412;9.730;2022-08-24T16:55:46;3.05;;;2.00;;
48317;SDS011;34127;47.412;9.730;2022-08-24T16:58:12;3.28;;;1.85;;
48317;SDS011;34127;47.412;9.730;2022-08-24T17:00:39;3.33;;;2.00;;
48317;SDS011;34127;47.412;9.730;2022-08-24T17:03:05;3.40;;;1.92;;
48317;SDS011;34127;47.412;9.730;2022-08-24T17:05:32;2.90;;;1.85;;
48317;SDS011;34127;47.412;9.730;2022-08-24T17:07:59;3.00;;;1.95;;
48317;SDS011;34127;47.412;9.730;2022-08-24T17:10:26;3.47;;;2.05;;
48317;SDS011;34127;47.412;9.730;2022-08-24T17:12:52;3.78;;;1.90;;
48317;SDS011;34127;47.412;9.730;2022-08-24T17:15:19;4.68;;;2.00;;
48317;SDS011;34127;47.412;9.730;2022-08-24T17:17:47;4.22;;;2.05;;
48317;SDS011;34127;47.412;9.730;2022-08-24T17:20:18;5.07;;;2.40;;
48317;SDS011;34127;47.412;9.730;2022-08-24T17:22:44;6.07;;;2.28;;
48317;SDS011;34127;47.412;9.730;2022-08-24T17:25:11;4.97;;;2.10;;
48317;SDS011;34127;47.412;9.730;2022-08-24T17:27:37;3.85;;;2.63;;
48317;SDS011;34127;47.412;9.730;2022-08-24T17:30:03;5.38;;;2.20;;
48317;SDS011;34127;47.412;9.730;2022-08-24T17:32:30;3.42;;;2.05;;
48317;SDS011;34127;47.412;9.730;2022-08-24T17:34:56;6.70;;;3.08;;
48317;SDS011;34127;47.412;9.730;2022-08-24T17:37:22;5.03;;;2.72;;
48317;SDS011;34127;47.412;9.730;2022-08-24T17:39:52;5.78;;;2.95;;
48317;SDS011;34127;47.412;9.730;2022-08-24T17:42:19;4.93;;;3.03;;
48317;SDS011;34127;47.412;9.730;2022-08-24T17:44:45;4.30;;;3.03;;
48317;SDS011;34127;47.412;9.730;2022-08-24T17:47:11;7.93;;;3.33;;
48317;SDS011;34127;47.412;9.730;2022-08-24T17:49:37;4.28;;;2.60;;
48317;SDS011;34127;47.412;9.730;2022-08-24T17:52:04;6.32;;;3.03;;
48317;SDS011;34127;47.412;9.730;2022-08-24T17:54:30;5.90;;;2.65;;
48317;SDS011;34127;47.412;9.730;2022-08-24T17:56:57;5.47;;;3.00;;
48317;SDS011;34127;47.412;9.730;2022-08-24T17:59:41;9.15;;;3.75;;
48317;SDS011;34127;47.412;9.730;2022-08-24T18:02:09;4.10;;;2.75;;
48317;SDS011;34127;47.412;9.730;2022-08-24T18:04:36;6.63;;;2.50;;
48317;SDS011;34127;47.412;9.730;2022-08-24T18:07:04;4.70;;;2.67;;
48317;SDS011;34127;47.412;9.730;2022-08-24T18:09:32;4.35;;;2.40;;
48317;SDS011;34127;47.412;9.730;2022-08-24T18:11:59;5.43;;;2.50;;
48317;SDS011;34127;47.412;9.730;2022-08-24T18:14:26;3.45;;;2.35;;
48317;SDS011;34127;47.412;9.730;2022-08-24T18:16:52;3.70;;;2.35;;
48317;SDS011;34127;47.412;9.730;2022-08-24T18:19:19;5.47;;;2.53;;
48317;SDS011;34127;47.412;9.730;2022-08-24T18:21:45;6.70;;;2.60;;
48317;SDS011;34127;47.412;9.730;2022-08-24T18:24:11;4.13;;;2.30;;
48317;SDS011;34127;47.412;9.730;2022-08-24T18:26:37;4.75;;;2.30;;
48317;SDS011;34127;47.412;9.730;2022-08-24T18:29:09;3.88;;;2.50;;
48317;SDS011;34127;47.412;9.730;2022-08-24T18:31:36;3.85;;;2.50;;
48317;SDS011;34127;47.412;9.730;2022-08-24T18:34:02;4.40;;;2.40;;
48317;SDS011;34127;47.412;9.730;2022-08-24T18:36:28;5.20;;;3.08;;
48317;SDS011;34127;47.412;9.730;2022-08-24T18:38:55;5.03;;;2.35;;
48317;SDS011;34127;47.412;9.730;2022-08-24T18:41:21;3.95;;;2.47;;
48317;SDS011;34127;47.412;9.730;2022-08-24T18:43:51;3.55;;;2.28;;
48317;SDS011;34127;47.412;9.730;2022-08-24T18:46:18;4.35;;;2.65;;
48317;SDS011;34127;47.412;9.730;2022-08-24T18:48:44;3.15;;;2.20;;
48317;SDS011;34127;47.412;9.730;2022-08-24T18:51:12;4.78;;;2.20;;
48317;SDS011;34127;47.412;9.730;2022-08-24T18:53:39;4.95;;;2.60;;
48317;SDS011;34127;47.412;9.730;2022-08-24T18:56:05;3.78;;;2.40;;
48317;SDS011;34127;47.412;9.730;2022-08-24T18:58:33;4.93;;;2.30;;
48317;SDS011;34127;47.412;9.730;2022-08-24T19:00:59;4.63;;;2.53;;